createdAt,value
2022-11-21T00:01:26.717Z,98213.47
2022-11-21T00:03:53.843Z,98229.81
2022-11-21T00:06:20.674Z,98223.28
2022-11-21T00:08:47.781Z,98233.59
2022-11-21T00:11:15.447Z,98232.78
2022-11-21T00:13:43.193Z,98231.63
2022-11-21T00:16:14.069Z,98233.28
2022-11-21T00:18:42.110Z,98223.88
2022-11-21T00:21:14.341Z,98231.47
2022-11-21T00:23:41.697Z,98225.88
2022-11-21T00:26:10.537Z,98225.91
2022-11-21T00:28:37.573Z,98220.97
2022-11-21T00:31:05.408Z,98212.16
2022-11-21T00:33:34.712Z,98214.91
2022-11-21T00:36:08.543Z,98214.91
2022-11-21T00:38:35.857Z,98206.34
2022-11-21T00:41:02.658Z,98190.78
2022-11-21T00:43:29.425Z,98184.28
2022-11-21T00:45:56.294Z,98181.59
2022-11-21T00:48:23.062Z,98177.72
2022-11-21T00:50:50.140Z,98171.00
2022-11-21T00:53:16.950Z,98164.94
2022-11-21T00:55:43.772Z,98167.75
2022-11-21T00:58:10.564Z,98164.13
2022-11-21T01:00:37.388Z,98161.41
2022-11-21T01:03:04.188Z,98161.34
2022-11-21T01:05:33.177Z,98162.50
2022-11-21T01:07:59.943Z,98157.28
2022-11-21T01:10:26.789Z,98151.16
2022-11-21T01:12:53.570Z,98166.69
2022-11-21T01:15:20.334Z,98142.72
2022-11-21T01:17:47.126Z,98152.00
2022-11-21T01:20:14.799Z,98139.06
2022-11-21T01:22:41.529Z,98152.28
2022-11-21T01:25:08.658Z,98151.28
2022-11-21T01:27:35.655Z,98126.34
2022-11-21T01:30:02.436Z,98156.09
2022-11-21T01:32:29.212Z,98151.09
2022-11-21T01:34:55.992Z,98146.88
2022-11-21T01:37:22.758Z,98149.53
2022-11-21T01:39:49.521Z,98152.88
2022-11-21T01:42:16.272Z,98145.50
2022-11-21T01:44:53.515Z,98139.34
2022-11-21T01:47:22.490Z,98122.88
2022-11-21T01:49:49.973Z,98137.75
2022-11-21T01:52:28.647Z,98129.19
2022-11-21T01:55:03.794Z,98123.69
2022-11-21T01:57:41.465Z,98119.75
2022-11-21T02:00:11.319Z,98123.94
2022-11-21T02:02:44.346Z,98118.78
2022-11-21T02:05:18.706Z,98116.78
2022-11-21T02:07:48.626Z,98115.91
2022-11-21T02:10:16.659Z,98104.97
2022-11-21T02:13:00.096Z,98105.28
2022-11-21T02:15:29.555Z,98097.66
2022-11-21T02:17:56.521Z,98112.72
2022-11-21T02:20:26.309Z,98104.09
2022-11-21T02:23:07.936Z,98098.59
2022-11-21T02:25:37.967Z,98104.59
2022-11-21T02:28:12.140Z,98103.47
2022-11-21T02:30:41.393Z,98101.78
2022-11-21T02:33:08.804Z,98098.31
2022-11-21T02:35:35.926Z,98106.19
2022-11-21T02:38:18.233Z,98108.38
2022-11-21T02:41:05.944Z,98093.84
2022-11-21T02:43:44.772Z,98104.97
2022-11-21T02:46:11.577Z,98105.44
2022-11-21T02:48:39.192Z,98109.06
2022-11-21T02:51:06.091Z,98106.41
2022-11-21T02:53:32.939Z,98109.00
2022-11-21T02:55:59.737Z,98096.63
2022-11-21T02:58:27.035Z,98070.13
2022-11-21T03:00:55.204Z,98098.31
2022-11-21T03:03:22.552Z,98093.28
2022-11-21T03:05:49.404Z,98100.28
2022-11-21T03:08:16.217Z,98093.28
2022-11-21T03:10:43.017Z,98069.38
2022-11-21T03:13:09.772Z,98085.44
2022-11-21T03:15:36.559Z,98083.63
2022-11-21T03:18:04.455Z,98077.38
2022-11-21T03:20:32.968Z,98068.75
2022-11-21T03:22:59.744Z,98072.22
2022-11-21T03:25:26.635Z,98067.81
2022-11-21T03:27:54.534Z,98067.78
2022-11-21T03:30:24.460Z,98060.78
2022-11-21T03:32:51.357Z,98060.94
2022-11-21T03:35:18.186Z,98061.78
2022-11-21T03:37:45.038Z,98065.09
2022-11-21T03:40:12.534Z,98070.09
2022-11-21T03:42:39.448Z,98075.88
2022-11-21T03:45:07.192Z,98073.53
2022-11-21T03:47:34.147Z,98073.44
2022-11-21T03:50:00.983Z,98074.03
2022-11-21T03:52:27.833Z,98069.63
2022-11-21T03:54:54.629Z,98053.81
2022-11-21T03:57:21.431Z,98063.94
2022-11-21T03:59:48.235Z,98046.84
2022-11-21T04:02:15.068Z,98055.38
2022-11-21T04:04:41.854Z,98061.06
2022-11-21T04:07:08.733Z,98062.66
2022-11-21T04:09:35.666Z,98052.19
2022-11-21T04:12:07.312Z,98023.41
2022-11-21T04:14:34.724Z,98056.56
2022-11-21T04:17:01.639Z,98061.00
2022-11-21T04:19:28.450Z,98058.19
2022-11-21T04:21:55.208Z,98052.19
2022-11-21T04:24:21.999Z,98046.13
2022-11-21T04:26:48.793Z,98053.84
2022-11-21T04:29:15.556Z,98047.03
2022-11-21T04:31:42.328Z,98053.03
2022-11-21T04:34:09.151Z,98048.53
2022-11-21T04:36:36.099Z,98047.09
2022-11-21T04:39:04.279Z,98044.88
2022-11-21T04:41:31.145Z,98041.69
2022-11-21T04:43:57.954Z,98017.66
2022-11-21T04:46:24.799Z,98038.88
2022-11-21T04:48:51.608Z,98057.69
2022-11-21T04:51:18.503Z,98057.16
2022-11-21T04:53:45.273Z,98049.22
2022-11-21T04:56:16.227Z,98052.00
2022-11-21T04:58:44.693Z,98049.88
2022-11-21T05:01:12.238Z,98044.72
2022-11-21T05:03:39.254Z,98038.59
2022-11-21T05:06:06.097Z,98052.94
2022-11-21T05:08:32.890Z,98053.03
2022-11-21T05:11:17.870Z,98061.69
2022-11-21T05:13:44.619Z,98063.41
2022-11-21T05:16:11.459Z,98050.69
2022-11-21T05:18:38.308Z,98041.59
2022-11-21T05:21:05.174Z,98019.63
2022-11-21T05:23:32.036Z,98048.53
2022-11-21T05:25:58.832Z,98038.53
2022-11-21T05:28:25.725Z,98045.59
2022-11-21T05:30:52.528Z,98047.34
2022-11-21T05:33:20.280Z,98054.31
2022-11-21T05:35:47.178Z,98043.44
2022-11-21T05:38:13.966Z,98049.09
2022-11-21T05:40:40.777Z,98054.16
2022-11-21T05:43:26.397Z,98051.06
2022-11-21T05:45:53.449Z,98053.97
2022-11-21T05:48:20.310Z,98069.72
2022-11-21T05:50:50.189Z,98062.75
2022-11-21T05:53:17.679Z,98070.78
2022-11-21T05:55:45.369Z,98045.16
2022-11-21T05:58:12.383Z,98055.25
2022-11-21T06:00:39.329Z,98067.78
2022-11-21T06:03:27.842Z,98077.78
2022-11-21T06:06:13.347Z,98080.03
2022-11-21T06:08:43.588Z,98081.56
2022-11-21T06:11:15.946Z,98074.34
2022-11-21T06:13:43.483Z,98083.16
2022-11-21T06:16:13.885Z,98080.56
2022-11-21T06:18:44.089Z,98079.34
2022-11-21T06:21:16.965Z,98079.50
2022-11-21T06:23:44.259Z,98090.72
2022-11-21T06:26:18.684Z,98069.81
2022-11-21T06:28:46.817Z,98085.56
2022-11-21T06:31:18.364Z,98089.66
2022-11-21T06:33:45.996Z,98086.03
2022-11-21T06:36:19.112Z,98083.38
2022-11-21T06:38:46.725Z,98087.84
2022-11-21T06:41:15.594Z,98084.97
2022-11-21T06:43:43.141Z,98077.31
2022-11-21T06:46:10.619Z,98091.38
2022-11-21T06:48:38.479Z,98083.06
2022-11-21T06:51:22.203Z,98087.53
2022-11-21T06:53:57.438Z,98093.63
2022-11-21T06:56:30.335Z,98098.09
2022-11-21T06:58:58.318Z,98084.69
2022-11-21T07:01:25.979Z,98098.25
2022-11-21T07:03:53.712Z,98090.59
2022-11-21T07:06:20.797Z,98096.56
2022-11-21T07:08:52.435Z,98095.06
2022-11-21T07:11:26.895Z,98077.63
2022-11-21T07:13:53.884Z,98095.75
2022-11-21T07:16:20.636Z,98095.16
2022-11-21T07:18:47.869Z,98088.00
2022-11-21T07:21:15.018Z,98092.09
2022-11-21T07:23:41.987Z,98099.09
2022-11-21T07:26:10.774Z,98089.91
2022-11-21T07:28:37.594Z,98096.03
2022-11-21T07:31:09.962Z,98091.56
2022-11-21T07:33:38.649Z,98089.06
2022-11-21T07:36:05.881Z,98098.94
2022-11-21T07:38:32.669Z,98097.13
2022-11-21T07:40:59.547Z,98095.44
2022-11-21T07:43:26.308Z,98103.38
2022-11-21T07:45:53.075Z,98100.56
2022-11-21T07:48:19.847Z,98093.00
2022-11-21T07:50:46.595Z,98093.28
2022-11-21T07:53:13.547Z,98092.69
2022-11-21T07:55:41.028Z,98075.88
2022-11-21T07:58:11.759Z,98092.41
2022-11-21T08:00:42.638Z,98090.19
2022-11-21T08:03:11.942Z,98088.69
2022-11-21T08:05:41.810Z,98094.06
2022-11-21T08:08:10.596Z,98089.31
2022-11-21T08:10:43.725Z,98069.84
2022-11-21T08:13:11.845Z,98083.47
2022-11-21T08:15:39.275Z,98094.22
2022-11-21T08:18:15.791Z,98095.66
2022-11-21T08:20:42.846Z,98098.31
2022-11-21T08:23:10.721Z,98093.88
2022-11-21T08:25:38.994Z,98090.38
2022-11-21T08:28:07.604Z,98090.88
2022-11-21T08:30:35.801Z,98078.59
2022-11-21T08:33:03.537Z,98080.41
2022-11-21T08:35:30.726Z,98081.09
2022-11-21T08:37:59.170Z,98092.16
2022-11-21T08:40:28.312Z,98081.06
2022-11-21T08:43:07.270Z,98079.38
2022-11-21T08:45:36.391Z,98083.16
2022-11-21T08:48:04.068Z,98089.38
2022-11-21T08:50:31.964Z,98081.41
2022-11-21T08:53:02.904Z,98076.94
2022-11-21T08:55:30.858Z,98073.34
2022-11-21T08:57:58.440Z,98074.03
2022-11-21T09:00:25.613Z,98072.22
2022-11-21T09:02:52.426Z,98063.50
2022-11-21T09:05:19.294Z,98069.28
2022-11-21T09:07:47.563Z,98071.78
2022-11-21T09:10:15.028Z,98057.66
2022-11-21T09:12:41.895Z,98054.16
2022-11-21T09:15:29.836Z,98041.53
2022-11-21T09:18:04.532Z,98048.69
2022-11-21T09:20:40.958Z,98024.56
2022-11-21T09:23:11.802Z,98043.03
2022-11-21T09:25:38.777Z,98039.41
2022-11-21T09:28:08.064Z,98038.72
2022-11-21T09:30:35.642Z,98039.22
2022-11-21T09:33:04.468Z,98033.00
2022-11-21T09:35:31.884Z,98021.94
2022-11-21T09:37:59.242Z,98035.19
2022-11-21T09:40:26.543Z,98023.25
2022-11-21T09:43:58.096Z,98041.72
2022-11-21T09:46:31.864Z,98044.91
2022-11-21T09:49:06.675Z,98052.50
2022-11-21T09:51:37.654Z,98045.41
2022-11-21T09:54:10.964Z,98042.75
2022-11-21T09:56:41.462Z,98044.22
2022-11-21T09:59:29.282Z,98027.41
2022-11-21T10:01:56.723Z,98014.59
2022-11-21T10:04:23.735Z,98024.25
2022-11-21T10:07:07.341Z,98008.53
2022-11-21T10:10:03.534Z,98003.19
2022-11-21T10:13:06.713Z,97995.63
2022-11-21T10:15:58.387Z,97972.81
2022-11-21T10:19:21.861Z,97976.28
2022-11-21T10:22:21.095Z,97979.50
2022-11-21T10:24:57.848Z,97977.25
2022-11-21T10:27:36.755Z,97965.91
2022-11-21T10:30:13.711Z,97949.44
2022-11-21T10:32:48.982Z,97959.38
2022-11-21T10:35:48.644Z,97941.31
2022-11-21T10:38:26.693Z,97928.72
2022-11-21T10:41:40.535Z,97921.38
2022-11-21T10:44:45.765Z,97927.94
2022-11-21T10:47:27.624Z,97934.22
2022-11-21T10:50:14.539Z,97928.41
2022-11-21T10:53:37.432Z,97918.91
2022-11-21T10:56:13.696Z,97924.00
2022-11-21T10:58:45.589Z,97916.06
2022-11-21T11:01:33.890Z,97901.34
2022-11-21T11:06:59.908Z,97893.78
2022-11-21T11:09:33.084Z,97888.59
2022-11-21T11:12:18.824Z,97880.19
2022-11-21T11:14:56.201Z,97876.22
2022-11-21T11:17:31.961Z,97866.81
2022-11-21T11:20:44.908Z,97843.91
2022-11-21T11:23:25.748Z,97853.69
2022-11-21T11:25:58.507Z,97840.59
2022-11-21T11:28:27.254Z,97840.50
2022-11-21T11:30:55.798Z,97834.84
2022-11-21T11:33:41.054Z,97828.53
2022-11-21T11:36:11.971Z,97830.34
2022-11-21T11:38:41.215Z,97815.75
2022-11-21T11:42:22.780Z,97817.63
2022-11-21T11:45:17.625Z,97830.59
2022-11-21T11:48:00.191Z,97816.84
2022-11-21T11:50:50.462Z,97805.31
2022-11-21T11:53:42.222Z,97807.69
2022-11-21T11:56:22.668Z,97808.13
2022-11-21T11:59:05.261Z,97801.94
2022-11-21T12:01:55.803Z,97795.94
2022-11-21T12:04:25.116Z,97802.47
2022-11-21T12:08:19.902Z,97789.03
2022-11-21T12:10:27.643Z,97782.81
2022-11-21T12:13:14.224Z,97779.59
2022-11-21T12:15:50.671Z,97783.66
2022-11-21T12:18:20.455Z,97772.69
2022-11-21T12:21:14.472Z,97765.94
2022-11-21T12:23:58.572Z,97761.91
2022-11-21T12:26:45.308Z,97761.69
2022-11-21T12:29:36.102Z,97752.19
2022-11-21T12:32:31.401Z,97744.09
2022-11-21T12:35:44.302Z,97735.63
2022-11-21T12:38:45.238Z,97730.34
2022-11-21T12:41:48.312Z,97721.75
2022-11-21T12:44:59.539Z,97719.19
2022-11-21T12:48:01.244Z,97706.25
2022-11-21T12:51:08.972Z,97694.94
2022-11-21T12:54:30.243Z,97688.63
2022-11-21T12:57:09.862Z,97685.94
2022-11-21T13:00:17.171Z,97671.16
2022-11-21T13:03:24.460Z,97662.53
2022-11-21T13:05:53.543Z,97655.50
2022-11-21T13:08:25.517Z,97641.63
2022-11-21T13:11:57.374Z,97636.56
2022-11-21T13:14:48.440Z,97624.44
2022-11-21T13:17:36.953Z,97624.34
2022-11-21T13:20:28.138Z,97625.25
2022-11-21T13:23:01.042Z,97620.91
2022-11-21T13:25:41.093Z,97618.00
2022-11-21T13:28:13.941Z,97617.94
2022-11-21T13:30:52.309Z,97613.44
2022-11-21T13:33:38.957Z,97606.41
2022-11-21T13:36:14.001Z,97604.66
2022-11-21T13:38:52.814Z,97602.91
2022-11-21T13:41:53.332Z,97604.75
2022-11-21T13:44:32.334Z,97578.69
2022-11-21T13:47:10.841Z,97591.94
2022-11-21T13:49:43.391Z,97604.66
2022-11-21T13:52:49.901Z,97590.06
2022-11-21T13:55:59.555Z,97584.91
2022-11-21T13:59:12.628Z,97574.44
2022-11-21T14:01:57.328Z,97567.34
2022-11-21T14:04:43.264Z,97565.50
2022-11-21T14:07:31.528Z,97560.19
2022-11-21T14:10:04.605Z,97544.06
2022-11-21T14:12:44.301Z,97531.78
2022-11-21T14:15:38.830Z,97549.03
2022-11-21T14:18:06.455Z,97542.91
2022-11-21T14:20:56.814Z,97541.78
2022-11-21T14:23:26.826Z,97537.03
2022-11-21T14:25:57.547Z,97553.38
2022-11-21T14:28:34.159Z,97540.94
2022-11-21T14:31:10.226Z,97543.19
2022-11-21T14:33:41.379Z,97539.50
2022-11-21T14:36:16.833Z,97522.66
2022-11-21T14:39:02.107Z,97508.72
2022-11-21T14:41:38.418Z,97524.53
2022-11-21T14:44:15.372Z,97519.34
2022-11-21T14:46:43.323Z,97517.69
2022-11-21T14:49:15.856Z,97516.03
2022-11-21T14:51:45.655Z,97519.22
2022-11-21T14:54:18.896Z,97479.03
2022-11-21T14:56:49.359Z,97467.44
2022-11-21T14:59:29.781Z,97494.81
2022-11-21T15:02:22.079Z,97490.97
2022-11-21T15:04:52.218Z,97480.53
2022-11-21T15:07:30.162Z,97470.16
2022-11-21T15:12:48.246Z,97455.34
2022-11-21T15:15:35.601Z,97442.19
2022-11-21T15:18:27.546Z,97429.34
2022-11-21T15:20:55.713Z,97412.03
2022-11-21T15:23:42.963Z,97387.28
2022-11-21T15:26:35.452Z,97409.06
2022-11-21T15:29:02.227Z,97398.59
2022-11-21T15:31:29.133Z,97389.22
2022-11-21T15:34:33.756Z,97384.25
2022-11-21T15:37:16.622Z,97375.88
2022-11-21T15:39:50.009Z,97370.81
2022-11-21T15:42:31.922Z,97356.34
2022-11-21T15:45:15.339Z,97357.81
2022-11-21T15:47:47.043Z,97347.16
2022-11-21T15:50:15.110Z,97345.00
2022-11-21T15:52:51.216Z,97332.41
2022-11-21T15:55:26.222Z,97306.84
2022-11-21T15:57:53.017Z,97315.03
2022-11-21T16:00:19.897Z,97319.19
2022-11-21T16:02:47.381Z,97314.97
2022-11-21T16:05:15.741Z,97315.31
2022-11-21T16:07:42.845Z,97302.38
2022-11-21T16:10:16.576Z,97299.19
2022-11-21T16:12:47.116Z,97310.25
2022-11-21T16:15:14.235Z,97310.66
2022-11-21T16:17:41.683Z,97289.22
2022-11-21T16:20:09.095Z,97280.75
2022-11-21T16:22:35.842Z,97293.22
2022-11-21T16:25:02.710Z,97287.44
2022-11-21T16:27:29.598Z,97282.84
2022-11-21T16:29:56.377Z,97280.66
2022-11-21T16:32:26.369Z,97263.91
2022-11-21T16:34:54.557Z,97263.91
2022-11-21T16:37:21.363Z,97241.03
2022-11-21T16:39:51.882Z,97250.44
2022-11-21T16:42:19.698Z,97243.84
2022-11-21T16:44:46.511Z,97255.34
2022-11-21T16:47:14.849Z,97232.41
2022-11-21T16:49:48.247Z,97217.13
2022-11-21T16:52:16.125Z,97238.19
2022-11-21T16:54:42.990Z,97231.28
2022-11-21T16:57:09.806Z,97242.44
2022-11-21T16:59:37.107Z,97242.56
2022-11-21T17:02:04.320Z,97245.44
2022-11-21T17:04:31.966Z,97247.00
2022-11-21T17:07:00.787Z,97212.66
2022-11-21T17:09:27.732Z,97214.28
2022-11-21T17:11:57.768Z,97228.03
2022-11-21T17:14:24.528Z,97214.28
2022-11-21T17:16:51.416Z,97210.97
2022-11-21T17:19:18.307Z,97201.63
2022-11-21T17:21:45.276Z,97218.00
2022-11-21T17:24:15.156Z,97178.09
2022-11-21T17:26:41.969Z,97206.25
2022-11-21T17:29:09.719Z,97201.22
2022-11-21T17:31:36.662Z,97191.78
2022-11-21T17:34:03.584Z,97193.66
2022-11-21T17:36:34.186Z,97181.50
2022-11-21T17:39:01.076Z,97182.72
2022-11-21T17:41:28.073Z,97172.44
2022-11-21T17:43:57.008Z,97186.47
2022-11-21T17:46:28.330Z,97200.72
2022-11-21T17:48:58.274Z,97177.59
2022-11-21T17:51:29.442Z,97168.28
2022-11-21T17:53:56.487Z,97150.56
2022-11-21T17:56:28.510Z,97138.78
2022-11-21T17:58:55.640Z,97105.63
2022-11-21T18:01:22.902Z,97154.66
2022-11-21T18:03:57.689Z,97161.50
2022-11-21T18:06:32.423Z,97160.38
2022-11-21T18:08:59.444Z,97170.50
2022-11-21T18:11:38.900Z,97162.34
2022-11-21T18:14:08.180Z,97154.50
2022-11-21T18:16:35.588Z,97143.69
2022-11-21T18:19:02.452Z,97136.66
2022-11-21T18:21:32.366Z,97135.03
2022-11-21T18:24:02.197Z,97132.44
2022-11-21T18:26:32.696Z,97124.69
2022-11-21T18:29:28.490Z,97120.56
2022-11-21T18:31:49.209Z,97123.38
2022-11-21T18:34:16.035Z,97119.03
2022-11-21T18:36:42.782Z,97117.06
2022-11-21T18:39:14.563Z,97113.88
2022-11-21T18:41:43.585Z,97120.66
2022-11-21T18:44:10.771Z,97120.66
2022-11-21T18:46:41.022Z,97120.66
2022-11-21T18:49:08.575Z,97118.19
2022-11-21T18:51:36.863Z,97122.31
2022-11-21T18:54:07.777Z,97120.44
2022-11-21T18:56:36.826Z,97122.41
2022-11-21T18:59:05.907Z,97116.25
2022-11-21T19:01:34.750Z,97112.00
2022-11-21T19:04:01.787Z,97115.28
2022-11-21T19:06:29.210Z,97106.25
2022-11-21T19:08:58.266Z,97108.72
2022-11-21T19:11:28.510Z,97105.19
2022-11-21T19:13:57.262Z,97103.56
2022-11-21T19:16:27.404Z,97104.47
2022-11-21T19:19:26.333Z,97098.50
2022-11-21T19:21:42.405Z,97100.97
2022-11-21T19:24:14.158Z,97093.25
2022-11-21T19:26:41.982Z,97089.94
2022-11-21T19:29:09.750Z,97093.66
2022-11-21T19:31:42.611Z,97083.09
2022-11-21T19:34:12.176Z,97075.59
2022-11-21T19:36:39.496Z,97086.84
2022-11-21T19:39:06.699Z,97076.53
2022-11-21T19:41:33.529Z,97068.06
2022-11-21T19:44:01.770Z,97072.19
2022-11-21T19:46:35.232Z,97071.47
2022-11-21T19:49:02.593Z,97065.59
2022-11-21T19:51:31.822Z,97062.91
2022-11-21T19:53:58.689Z,97058.75
2022-11-21T19:56:26.466Z,97052.59
2022-11-21T19:58:55.926Z,97040.44
2022-11-21T20:01:26.718Z,97051.03
2022-11-21T20:03:57.346Z,97045.56
2022-11-21T20:06:32.704Z,97053.72
2022-11-21T20:09:09.232Z,97047.84
2022-11-21T20:11:36.953Z,97049.50
2022-11-21T20:14:04.199Z,97032.38
2022-11-21T20:16:37.350Z,97036.63
2022-11-21T20:19:07.787Z,97042.50
2022-11-21T20:21:35.380Z,97035.78
2022-11-21T20:24:02.628Z,97051.16
2022-11-21T20:26:29.845Z,97042.50
2022-11-21T20:28:57.073Z,97043.63
2022-11-21T20:31:30.467Z,97050.88
2022-11-21T20:34:00.878Z,97052.41
2022-11-21T20:36:30.705Z,97048.50
2022-11-21T20:39:04.183Z,97048.28
2022-11-21T20:41:34.149Z,97061.91
2022-11-21T20:46:54.947Z,97057.16
2022-11-21T20:49:21.744Z,97085.84
2022-11-21T20:54:36.424Z,97081.81
2022-11-21T20:57:03.291Z,97079.22
2022-11-21T20:59:30.247Z,97068.91
2022-11-21T21:01:57.387Z,97079.00
2022-11-21T21:04:24.246Z,97077.78
2022-11-21T21:06:51.026Z,97057.03
2022-11-21T21:09:17.776Z,97055.28
2022-11-21T21:11:52.153Z,97064.03
2022-11-21T21:14:21.652Z,97070.25
2022-11-21T21:16:49.127Z,97078.59
2022-11-21T21:19:16.135Z,97040.66
2022-11-21T21:21:43.103Z,97053.84
2022-11-21T21:24:11.513Z,97043.97
2022-11-21T21:26:43.373Z,97038.59
2022-11-21T21:29:13.056Z,97047.25
2022-11-21T21:31:43.894Z,97038.69
2022-11-21T21:34:13.790Z,97046.22
2022-11-21T21:36:40.553Z,97038.59
2022-11-21T21:39:07.472Z,97036.94
2022-11-21T21:41:34.464Z,97036.34
2022-11-21T21:44:01.283Z,97032.81
2022-11-21T21:46:28.384Z,97051.59
2022-11-21T21:48:57.433Z,97025.06
2022-11-21T21:51:27.309Z,97024.56
2022-11-21T21:53:56.424Z,97022.00
2022-11-21T21:56:25.605Z,97037.34
2022-11-21T21:58:52.632Z,97026.44
2022-11-21T22:01:25.821Z,97047.16
2022-11-21T22:03:55.721Z,97039.94
2022-11-21T22:06:23.073Z,97048.50
2022-11-21T22:08:50.255Z,97027.56
2022-11-21T22:11:21.900Z,97046.84
2022-11-21T22:13:56.628Z,97042.63
2022-11-21T22:16:23.392Z,97029.50
2022-11-21T22:18:50.467Z,97039.72
2022-11-21T22:21:23.680Z,97036.94
2022-11-21T22:24:17.830Z,97042.19
2022-11-21T22:26:38.284Z,97044.75
2022-11-21T22:29:05.198Z,97049.00
2022-11-21T22:31:32.872Z,97048.91
2022-11-21T22:34:00.342Z,97054.16
2022-11-21T22:36:27.171Z,97062.75
2022-11-21T22:38:54.844Z,97060.47
2022-11-21T22:41:26.964Z,97053.22
2022-11-21T22:43:57.172Z,97061.06
2022-11-21T22:46:26.952Z,97055.28
2022-11-21T22:48:54.036Z,97055.06
2022-11-21T22:51:24.304Z,97050.03
2022-11-21T22:53:51.809Z,97057.16
2022-11-21T22:56:22.016Z,97051.81
2022-11-21T22:58:48.975Z,97046.66
2022-11-21T23:01:19.334Z,97051.09
2022-11-21T23:03:47.316Z,97051.81
2022-11-21T23:06:20.474Z,97046.66
2022-11-21T23:08:48.433Z,97045.81
2022-11-21T23:11:22.721Z,97044.97
2022-11-21T23:13:50.384Z,97045.81
2022-11-21T23:16:17.879Z,97045.72
2022-11-21T23:18:45.266Z,97032.59
2022-11-21T23:21:13.580Z,97028.50
2022-11-21T23:23:40.706Z,97022.50
2022-11-21T23:26:07.927Z,97014.88
2022-11-21T23:28:34.828Z,97015.09
2022-11-21T23:31:01.832Z,96972.84
2022-11-21T23:33:28.693Z,96981.75
2022-11-21T23:35:55.629Z,96973.34
2022-11-21T23:38:22.508Z,96962.91
2022-11-21T23:40:49.817Z,96966.34
2022-11-21T23:43:17.476Z,96981.13
2022-11-21T23:45:45.347Z,96991.78
2022-11-21T23:48:12.211Z,96983.72
2022-11-21T23:50:39.083Z,96977.16
2022-11-21T23:53:05.934Z,96987.69
2022-11-21T23:55:32.816Z,97001.50
2022-11-21T23:57:59.667Z,96999.19
